This is the latest recevied weather packets stored in our database for station/object OK1JRA-6. If no packets are shown the sender has not sent any weather packets the latest 1 day(s).
| Time | Temp. | Humidity | Pressure | Rain* | Wind** | Luminosity | Snow |
|---|---|---|---|---|---|---|---|
| 1778005453 | 17.78° C | 64% | 1005.6 hPa | 0 mm | 1.79 m/s, 249° | - | - |
| 1778005453 | 17.78° C | 64% | 1005.6 hPa | 0 mm | 1.79 m/s, 249° | - | - |
| 1778005151 | 17.78° C | 64% | 1005.4 hPa | 0 mm | 2.24 m/s, 243° | - | - |
| 1778005150 | 17.78° C | 64% | 1005.4 hPa | 0 mm | 2.24 m/s, 243° | - | - |
| 1778005147 | 17.78° C | 64% | 1005.4 hPa | 0 mm | 2.24 m/s, 243° | - | - |
| 1778005147 | 17.78° C | 64% | 1005.4 hPa | 0 mm | 2.24 m/s, 243° | - | - |
| 1778005147 | 17.78° C | 64% | 1005.4 hPa | 0 mm | 2.24 m/s, 243° | - | - |
| 1778004844 | 17.78° C | 64% | 1004.9 hPa | 0.25 mm | 2.24 m/s, 273° | - | - |
| 1778004844 | 17.78° C | 64% | 1004.9 hPa | 0.25 mm | 2.24 m/s, 273° | - | - |
| 1778004841 | 17.78° C | 64% | 1004.9 hPa | 0.25 mm | 2.24 m/s, 273° | - | - |
| 1778004841 | 17.78° C | 64% | 1004.9 hPa | 0.25 mm | 2.24 m/s, 273° | - | - |
| 1778004841 | 17.78° C | 64% | 1004.9 hPa | 0.25 mm | 2.24 m/s, 273° | - | - |
| 1778004538 | 17.78° C | 65% | 1004.5 hPa | 0.25 mm | 1.34 m/s, 185° | - | - |
| 1778004538 | 17.78° C | 65% | 1004.5 hPa | 0.25 mm | 1.34 m/s, 185° | - | - |
| 1778004534 | 17.78° C | 65% | 1004.5 hPa | 0.25 mm | 1.34 m/s, 185° | - | - |
| 1778004534 | 17.78° C | 65% | 1004.5 hPa | 0.25 mm | 1.34 m/s, 185° | - | - |
| 1778004534 | 17.78° C | 65% | 1004.5 hPa | 0.25 mm | 1.34 m/s, 185° | - | - |
| 1778004233 | 18.33° C | 63% | 1003.8 hPa | 0.25 mm | 1.34 m/s, 55° | - | - |
| 1778004232 | 18.33° C | 63% | 1003.8 hPa | 0.25 mm | 1.34 m/s, 55° | - | - |
| 1778004232 | 18.33° C | 63% | 1003.8 hPa | 0.25 mm | 1.34 m/s, 55° | - | - |
| 1778004228 | 18.33° C | 63% | 1003.8 hPa | 0.25 mm | 1.34 m/s, 55° | - | - |
| 1778004228 | 18.33° C | 63% | 1003.8 hPa | 0.25 mm | 1.34 m/s, 55° | - | - |
| 1778003927 | 18.33° C | 62% | 1003.5 hPa | 0.25 mm | 1.34 m/s, 46° | - | - |
| 1778003926 | 18.33° C | 62% | 1003.5 hPa | 0.25 mm | 1.34 m/s, 46° | - | - |
| 1778003926 | 18.33° C | 62% | 1003.5 hPa | 0.25 mm | 1.34 m/s, 46° | - | - |
* Rain latest hour (hover to see other rain measurements)
** Current wind speed in m/s (hover to see current wind gust speed)